Historyczne dane pomiarowe

Dodano dane terminowe – wersja testowa.

Dane z okresu 1951-2019

Wersja bazy: 1.34 [2019-03-16, lista zmian], aktualizacja planowana na 2019-04-15

Dane meteo z obszaru Polski uzyskane na podstawie danych udostępnionych przez Instytut Meteorologii i Gospodarki Wodnej – Państwowy Instytut Badawczy.

 

Wybierz Datę:    

       

TemperaturaWilgotnośćWiatrCiśnienieOpadyŚniegCzas trwania zjawisk
 Stacja t tx tn tng RH VA  wxwx mslp ppp RRR   cm mm wxwxwxwxwxwxwx
1961-08-14 14.8 19.6 5.1- 81.3- 3.0 2.0---- 0.0------------
1961-08-13 12.7 17.8 9.9- 84.8- 4.0 5.3---- 0.8------------
1961-08-12 18.7 22.2 14.2- 80.3- 3.7 2.0---- 3.7------------
1961-08-11 17.2 21.8 15.3- 86.3- 7.3 2.0---- 8.2------------
1961-08-10 18.3 22.4 12.1- 70.8- 6.7 2.3---- 3.8------------
1961-08-09 18.8 27.2 14.2- 63.5- 0.3 2.0---- 0.0------------
1961-08-08 16.1 21.0 9.6- 78.8- 6.7 3.0---- 0.0------------
1961-08-07 16.0 19.3 13.6- 93.3- 8.0 2.3---- 21.3------------
1961-08-06 22.4 28.6 11.6- 77.3- 1.3 3.0---- 4.8------------
1961-08-05 15.3 21.4 12.4- 84.8- 6.3 2.0---- 0.0------------
1961-08-04 15.1 18.6 5.9- 79.5- 3.7 1.3---- 0.0------------
1961-08-03 15.4 19.6 11.9- 90.3- 8.0 2.7---- 1.8------------
1961-08-02 19.3 22.7 9.2- 67.8- 1.0 2.7---- 5.2------------
1961-08-01 13.5 15.4 11.4- 90.5- 8.0 3.7---- 1.3------------
1961-07-31 14.2 16.7 8.9- 91.0- 8.0 3.3---- 7.1------------
1961-07-30 13.1 17.3 9.1- 96.3- 8.0 2.0---- 14.5------------
1961-07-29 13.2 18.9 10.5- 85.8- 8.0 2.3---- 0.5------------
1961-07-28 14.9 16.9 11.2- 90.0- 8.0 2.3---- 9.7------------
1961-07-27 17.5 22.5 14.1- 84.8- 8.0 3.7---- 0.0------------
1961-07-26 14.8 17.4 11.1- 86.3- 8.0 4.0---- 1.7------------
1961-07-25 13.8 18.3 7.4- 85.5- 7.3 3.0---- 0.1------------
1961-07-24 14.3 18.8 9.9- 90.5- 6.7 2.7---- 2.2------------
1961-07-23 14.6 17.1 11.8- 88.3- 7.3 2.3---- 0.0------------
1961-07-22 13.8 17.4 11.2- 93.0- 7.7 2.3---- 5.4------------
1961-07-21 14.5 19.2 7.6- 87.5- 3.3 2.0---- 13.3------------
1961-07-20 14.9 22.1 9.1- 86.5- 3.7 1.3---- 0.0------------
1961-07-19 13.3 20.7 9.6- 93.3- 6.0 1.3---- 5.9------------
1961-07-18 13.1 17.6 10.9- 92.3- 4.3 2.0---- 8.1------------
1961-07-17 15.7 21.8 7.6- 78.8- 5.0 3.3---- 0.1------------
1961-07-16 13.3 19.6 7.4- 91.8- 7.7 2.3---- 22.7------------
1961-07-15 15.6 22.5 6.2- 80.8- 1.7 2.3---- 0.1------------
1961-07-14 13.9 22.7 12.1- 84.3- 6.7 5.7---- 0.0------------
1961-07-13 22.2 27.6 10.9- 67.5- 2.7 3.7---- 2.4------------
1961-07-12 16.7 21.8 9.5- 84.3- 3.7 2.0---- 0.2------------
1961-07-11 13.9 19.8 7.8- 75.5- 3.3 2.0---- 3.9------------
1961-07-10 14.1 18.8 11.6- 77.0- 6.0 3.7---- 0.0------------
1961-07-09 17.2 23.2 9.2- 69.8- 4.0 3.7---- 0.5------------
1961-07-08 14.7 18.6 6.7- 79.3- 6.7 2.7---- 0.0------------
1961-07-07 13.4 18.1 7.1- 71.8- 6.0 4.3---- 0.0------------
1961-07-06 11.9 16.3 5.2- 86.8- 7.7 3.3---- 0.7------------
1961-07-05 12.8 17.1 10.2- 81.0- 8.0 4.0---- 1.4------------
1961-07-04 17.0 23.9 14.4- 82.5- 5.3 3.3---- 4.5------------
1961-07-03 24.2 30.5 9.4- 56.8- 4.0 2.3---- 1.7------------
1961-07-02 21.4 27.9 8.6- 61.5- 0.0 3.3---- 0.0------------
1961-07-01 15.5 23.8 6.9- 73.3- 3.0 2.7---- 0.0------------
1961-06-30 16.0 22.9 6.8- 81.0- 0.0 3.0---- 0.0------------
1961-06-29 13.7 17.3 7.6- 82.3- 4.7 3.3---- 0.4------------
1961-06-28 13.7 19.0 10.4- 87.8- 6.0 4.0---- 2.9------------
1961-06-27 21.8 30.3 12.4- 80.8- 2.7 7.7---- 20.6------------
1961-06-26 20.4 27.0 12.2- 63.5- 0.0 4.3---- 0.0------------
1961-06-25 19.3 26.6 10.6- 68.0- 1.0 2.3---- 0.0------------
1961-06-24 16.1 21.0 10.2- 71.0- 4.3 3.7---- 0.0------------
1961-06-23 16.6 22.9 12.2- 76.8- 3.7 2.7---- 0.0------------
1961-06-22 14.7 19.9 7.9- 77.0- 2.3 2.0---- 0.0------------
1961-06-21 14.3 20.9 6.2- 75.3- 5.7 1.7---- 4.9------------
1961-06-20 13.1 18.5 9.3- 55.0- 1.7 4.7---- 0.0------------
1961-06-19 16.2 21.0 14.2- 61.8- 4.3 3.3---- 0.0------------
1961-06-18 20.0 25.3 14.4- 73.3- 6.7 4.0---- 0.2------------
1961-06-17 16.0 21.2 10.6- 85.0- 7.0 4.3---- 0.0------------
1961-06-16 13.6 17.1 11.2- 90.3- 8.0 4.7---- 11.0------------
389.4 ms

 

Źródłem pochodzenia danych jest Instytut Meteorologii i Gospodarki Wodnej – Państwowy Instytut Badawczy. Dane Instytutu Meteorologii i Gospodarki Wodnej – Państwowego Instytutu Badawczego zostały przetworzone.

Dane źródłowe można odnaleźć na stronie https://dane.imgw.pl